Time;durP1;ratioP1;P1;durP2;ratioP2;P2;SDS_P1;SDS_P2;PMS_P1;PMS_P2;Temp;Humidity;BMP_temperature;BMP_pressure;BME280_temperature;BME280_humidity;BME280_pressure;Samples;Min_cycle;Max_cycle;Signal;HPM_P1;HPM_P2
2022/01/13 00:00:29;;;;;;;0.85;0.85;;;4.40;99.90;;;;;;4440277;32;20046;-63
2022/01/13 00:02:55;;;;;;;1.40;1.27;;;4.30;99.90;;;;;;4441636;32;20084;-63
2022/01/13 00:05:27;;;;;;;2.97;1.55;;;4.40;99.90;;;;;;4438556;32;20069;-63
2022/01/13 00:07:55;;;;;;;3.40;1.62;;;4.40;99.90;;;;;;4441914;32;20403;-64
2022/01/13 00:10:22;;;;;;;7.72;1.23;;;4.40;99.90;;;;;;4427023;32;20774;-64
2022/01/13 00:12:50;;;;;;;1.37;1.27;;;4.40;99.90;;;;;;4440554;32;20128;-63
2022/01/13 00:18:01;;;;;;;0.80;0.80;;;4.40;99.90;;;;;;4436387;32;20259;-64
2022/01/13 00:20:36;;;;;;;1.37;1.15;;;4.40;99.90;;;;;;4440449;32;20132;-64
2022/01/13 00:24:03;;;;;;;2.08;1.52;;;4.40;99.90;;;;;;4440931;32;20061;-64
2022/01/13 00:25:52;;;;;;;1.60;1.00;;;4.40;99.90;;;;;;4426216;32;20459;-64
2022/01/13 00:28:20;;;;;;;2.75;1.55;;;4.40;99.90;;;;;;4441761;32;20135;-64
2022/01/13 00:30:50;;;;;;;1.42;1.33;;;4.40;99.90;;;;;;4439642;32;20092;-64
2022/01/13 00:33:18;;;;;;;0.60;0.60;;;4.50;99.90;;;;;;4444330;32;20089;-64
2022/01/13 00:35:43;;;;;;;9.25;2.87;;;4.50;99.90;;;;;;4442129;32;20568;-64
2022/01/13 00:38:08;;;;;;;6.10;2.35;;;4.50;99.90;;;;;;4442720;32;20065;-64
2022/01/13 00:40:34;;;;;;;0.88;0.88;;;4.40;99.90;;;;;;4439790;32;20423;-64
2022/01/13 00:43:00;;;;;;;1.67;1.37;;;4.50;99.90;;;;;;4440106;32;20057;-64
2022/01/13 00:45:25;;;;;;;2.03;1.35;;;4.40;99.90;;;;;;4440888;32;20060;-64
2022/01/13 00:47:51;;;;;;;2.78;1.45;;;4.40;99.90;;;;;;4425266;32;20057;-64
2022/01/13 00:50:18;;;;;;;2.05;1.02;;;4.40;99.90;;;;;;4443251;32;20085;-64
2022/01/13 00:52:43;;;;;;;2.03;1.02;;;4.50;99.90;;;;;;4440241;32;20115;-64
2022/01/13 00:55:15;;;;;;;2.65;2.08;;;4.50;99.90;;;;;;4438984;32;20065;-63
2022/01/13 00:57:40;;;;;;;1.67;1.35;;;4.40;99.90;;;;;;4439394;32;20073;-64
2022/01/13 01:00:06;;;;;;;2.20;1.35;;;4.50;99.90;;;;;;4441238;32;20061;-64
2022/01/13 01:02:32;;;;;;;3.10;1.65;;;4.50;99.90;;;;;;4439757;32;20126;-64
2022/01/13 01:04:57;;;;;;;3.22;1.23;;;4.50;99.90;;;;;;4440178;32;20080;-63
2022/01/13 01:07:23;;;;;;;0.68;0.68;;;4.50;99.90;;;;;;4428246;32;20097;-64
2022/01/13 01:09:50;;;;;;;0.55;0.55;;;4.50;99.90;;;;;;4441241;32;20167;-64
2022/01/13 01:12:18;;;;;;;18.90;3.17;;;4.50;99.90;;;;;;4440089;32;20074;-64
2022/01/13 01:14:49;;;;;;;1.65;1.15;;;4.40;99.90;;;;;;4441980;32;20180;-64
2022/01/13 01:17:16;;;;;;;1.05;0.93;;;4.50;99.90;;;;;;4443260;32;20065;-64
2022/01/13 01:19:45;;;;;;;1.10;0.90;;;4.50;99.90;;;;;;4430131;32;20478;-64
2022/01/13 01:27:25;;;;;;;7.95;2.05;;;4.50;99.90;;;;;;4428362;32;20117;-64
2022/01/13 01:29:56;;;;;;;2.45;1.45;;;4.50;99.90;;;;;;4444204;32;20093;-64
2022/01/13 01:32:22;;;;;;;1.30;1.20;;;4.50;99.90;;;;;;4443244;32;20057;-64
2022/01/13 01:34:56;;;;;;;0.50;0.50;;;4.40;99.90;;;;;;4443004;32;20085;-64
2022/01/13 01:37:26;;;;;;;1.40;1.12;;;4.40;99.90;;;;;;4442594;32;20092;-65
2022/01/13 01:39:53;;;;;;;1.17;1.07;;;4.50;99.90;;;;;;4429667;32;20139;-65
2022/01/13 01:42:21;;;;;;;0.55;0.55;;;4.50;99.90;;;;;;4441927;32;20175;-65
2022/01/13 01:44:49;;;;;;;2.87;1.40;;;4.50;99.90;;;;;;4442751;32;20105;-64
2022/01/13 01:47:17;;;;;;;1.20;1.10;;;4.50;99.90;;;;;;4428807;32;20077;-64
2022/01/13 01:49:47;;;;;;;0.70;0.70;;;4.50;99.90;;;;;;4443489;32;20439;-64
2022/01/13 01:52:15;;;;;;;1.17;1.07;;;4.50;99.90;;;;;;4429404;32;20081;-64
2022/01/13 01:54:42;;;;;;;5.50;1.80;;;4.50;99.90;;;;;;4428295;32;20100;-64
2022/01/13 01:57:08;;;;;;;0.70;0.68;;;4.50;99.90;;;;;;4439568;32;20057;-64
2022/01/13 01:59:37;;;;;;;4.45;1.23;;;4.50;99.90;;;;;;4444510;32;20076;-63
2022/01/13 02:02:03;;;;;;;4.07;1.55;;;4.50;99.90;;;;;;4441468;32;20131;-64
2022/01/13 02:04:28;;;;;;;9.27;1.27;;;4.50;99.90;;;;;;4442544;32;20525;-65
2022/01/13 02:06:56;;;;;;;1.65;1.55;;;4.50;99.90;;;;;;4427179;32;20410;-65
2022/01/13 02:09:22;;;;;;;0.70;0.70;;;4.50;99.90;;;;;;4442068;32;20072;-65
2022/01/13 02:11:53;;;;;;;28.87;2.60;;;4.60;99.90;;;;;;4442320;32;20161;-63
2022/01/13 02:14:33;;;;;;;0.70;0.70;;;4.50;99.90;;;;;;4442836;32;20068;-64
2022/01/13 02:17:06;;;;;;;2.33;1.27;;;4.50;99.90;;;;;;4443292;32;20088;-65
2022/01/13 02:19:35;;;;;;;2.10;1.67;;;4.50;99.90;;;;;;4443259;32;20150;-64
2022/01/13 02:22:00;;;;;;;1.55;1.10;;;4.50;99.90;;;;;;4443482;32;20504;-65
2022/01/13 02:24:27;;;;;;;4.12;1.50;;;4.50;99.90;;;;;;4442517;32;20125;-64
2022/01/13 02:26:53;;;;;;;7.25;1.35;;;4.50;99.90;;;;;;4441645;32;20119;-64
2022/01/13 02:29:19;;;;;;;2.85;1.58;;;4.40;99.90;;;;;;4427681;32;21210;-63
2022/01/13 02:31:44;;;;;;;0.80;0.80;;;4.50;99.90;;;;;;4442431;32;20101;-63
2022/01/13 02:34:10;;;;;;;1.20;1.17;;;4.50;99.90;;;;;;4442849;32;20135;-64
2022/01/13 02:36:37;;;;;;;1.85;1.25;;;4.50;99.90;;;;;;4427916;32;20511;-64
2022/01/13 02:39:04;;;;;;;3.20;1.27;;;4.50;99.90;;;;;;4439363;32;20120;-64
2022/01/13 02:41:30;;;;;;;1.65;1.20;;;4.50;99.90;;;;;;4442460;32;20073;-64
2022/01/13 02:43:58;;;;;;;0.70;0.70;;;4.50;99.90;;;;;;4443762;32;20078;-63
2022/01/13 02:46:32;;;;;;;10.10;2.00;;;4.50;99.90;;;;;;4443384;32;20533;-63
2022/01/13 02:48:59;;;;;;;1.02;1.02;;;4.50;99.90;;;;;;4443065;32;20105;-64
2022/01/13 02:51:26;;;;;;;2.87;1.40;;;4.50;99.90;;;;;;4443877;32;20084;-64
2022/01/13 02:53:52;;;;;;;0.70;0.70;;;4.50;99.90;;;;;;4440696;32;20140;-63
2022/01/13 02:56:18;;;;;;;0.85;0.82;;;4.40;99.90;;;;;;4425551;32;20064;-63
2022/01/13 02:58:45;;;;;;;5.72;2.40;;;4.40;99.90;;;;;;4441489;32;20453;-63
2022/01/13 03:01:11;;;;;;;5.45;2.12;;;4.40;99.90;;;;;;4439754;32;20505;-64
2022/01/13 03:03:38;;;;;;;12.68;2.28;;;4.40;99.90;;;;;;4441841;32;20068;-64
2022/01/13 03:06:08;;;;;;;7.15;2.90;;;4.40;99.90;;;;;;4442723;32;20142;-64
2022/01/13 03:08:33;;;;;;;4.05;2.25;;;4.40;99.90;;;;;;4443252;32;20438;-64
2022/01/13 03:10:59;;;;;;;1.52;1.42;;;4.40;99.90;;;;;;4440902;32;20116;-64
2022/01/13 03:13:28;;;;;;;1.58;1.48;;;4.40;99.90;;;;;;4440697;32;20124;-64
2022/01/13 03:15:53;;;;;;;0.45;0.45;;;4.40;99.90;;;;;;4443511;32;20097;-64
2022/01/13 03:18:19;;;;;;;2.60;2.05;;;4.40;99.90;;;;;;4440520;32;20146;-63
2022/01/13 03:20:44;;;;;;;3.08;1.52;;;4.50;99.90;;;;;;4440885;32;20089;-64
2022/01/13 03:23:10;;;;;;;1.75;1.62;;;4.50;99.90;;;;;;4442761;32;20182;-65
2022/01/13 03:25:37;;;;;;;0.82;0.82;;;4.50;99.90;;;;;;4441425;32;20140;-64
2022/01/13 03:28:07;;;;;;;12.07;1.15;;;4.40;99.90;;;;;;4428021;32;20078;-63
2022/01/13 03:30:33;;;;;;;1.48;1.37;;;4.40;99.90;;;;;;4443595;32;20146;-64
2022/01/13 03:33:00;;;;;;;1.83;1.42;;;4.40;99.90;;;;;;4428964;32;20561;-64
2022/01/13 03:35:26;;;;;;;5.95;0.93;;;4.40;99.90;;;;;;4442237;32;20415;-64
2022/01/13 03:37:52;;;;;;;1.77;1.00;;;4.40;99.90;;;;;;4426639;32;20085;-63
2022/01/13 03:40:17;;;;;;;4.03;1.85;;;4.40;99.90;;;;;;4442475;32;20073;-64
2022/01/13 03:42:43;;;;;;;3.72;1.35;;;4.50;99.90;;;;;;4441677;32;20065;-65
2022/01/13 03:45:09;;;;;;;1.05;0.75;;;4.40;99.90;;;;;;4442283;32;20065;-64
2022/01/13 03:47:34;;;;;;;1.67;1.58;;;4.40;99.90;;;;;;4442156;32;20193;-64
2022/01/13 03:50:00;;;;;;;2.40;1.25;;;4.40;99.90;;;;;;4444160;32;20134;-63
2022/01/13 03:52:29;;;;;;;0.80;0.77;;;4.30;99.90;;;;;;4442347;32;20138;-64
2022/01/13 03:55:34;;;;;;;1.20;1.20;;;4.40;99.90;;;;;;4441079;32;20444;-64
2022/01/13 03:58:39;;;;;;;1.15;1.05;;;4.40;99.90;;;;;;4429919;32;20131;-63
2022/01/13 04:01:45;;;;;;;2.30;1.60;;;4.40;99.90;;;;;;4429181;32;20065;-64
2022/01/13 04:04:10;;;;;;;1.92;0.93;;;4.40;99.90;;;;;;4416922;32;20065;-63
2022/01/13 04:06:40;;;;;;;4.57;1.20;;;4.40;99.90;;;;;;4438711;32;20537;-64
2022/01/13 04:09:36;;;;;;;0.98;0.98;;;4.30;99.90;;;;;;4441367;32;20529;-64
2022/01/13 04:12:05;;;;;;;5.72;1.70;;;4.40;99.90;;;;;;4430572;32;20529;-64
2022/01/13 04:14:39;;;;;;;4.57;2.25;;;4.30;99.90;;;;;;4426696;32;20471;-63
2022/01/13 04:17:05;;;;;;;0.55;0.55;;;4.30;99.90;;;;;;4441668;32;20065;-63
2022/01/13 04:19:30;;;;;;;4.05;1.30;;;4.20;99.90;;;;;;4426050;32;20077;-64
2022/01/13 04:21:56;;;;;;;3.08;1.35;;;4.30;99.90;;;;;;4438999;32;20131;-63
2022/01/13 04:24:22;;;;;;;4.57;1.87;;;4.30;99.90;;;;;;4441023;32;20442;-63
2022/01/13 04:26:48;;;;;;;1.73;1.45;;;4.30;99.90;;;;;;4439953;32;20068;-64
2022/01/13 04:31:43;;;;;;;0.93;0.90;;;4.30;99.90;;;;;;4441241;32;20411;-65
2022/01/13 04:34:09;;;;;;;0.88;0.88;;;4.30;99.90;;;;;;4438007;32;106373;-64
2022/01/13 04:36:35;;;;;;;0.50;0.50;;;4.20;99.90;;;;;;4439094;32;20053;-64
2022/01/13 04:39:02;;;;;;;0.68;0.68;;;4.20;99.90;;;;;;4441288;32;20488;-64
2022/01/13 04:41:32;;;;;;;1.12;1.12;;;4.20;99.90;;;;;;4440452;32;20073;-64
2022/01/13 04:43:58;;;;;;;1.42;1.17;;;4.20;99.90;;;;;;4441129;32;20787;-63
2022/01/13 04:46:24;;;;;;;1.40;1.30;;;4.20;99.90;;;;;;4441638;32;20065;-64
2022/01/13 04:48:49;;;;;;;4.68;2.22;;;4.20;99.90;;;;;;4440687;32;20053;-63
2022/01/13 04:51:15;;;;;;;0.60;0.60;;;4.20;99.90;;;;;;4425431;32;20065;-64
2022/01/13 04:53:40;;;;;;;1.25;1.08;;;4.20;99.90;;;;;;4441847;32;20048;-63
2022/01/13 04:56:11;;;;;;;3.03;1.30;;;4.20;99.90;;;;;;4440735;32;20086;-64
2022/01/13 04:58:37;;;;;;;10.02;1.00;;;4.20;99.90;;;;;;4440070;32;20117;-65
2022/01/13 05:01:03;;;;;;;3.42;1.58;;;4.20;99.90;;;;;;4438689;32;20057;-65
2022/01/13 05:03:29;;;;;;;1.92;1.70;;;4.20;99.90;;;;;;4440085;32;20127;-64
2022/01/13 05:05:55;;;;;;;1.60;1.35;;;4.10;99.90;;;;;;4440128;32;20077;-65
2022/01/13 05:08:20;;;;;;;3.45;1.73;;;4.10;99.90;;;;;;4441627;32;20082;-64
2022/01/13 05:10:45;;;;;;;2.58;1.80;;;4.20;99.90;;;;;;4442924;32;20066;-64
2022/01/13 05:13:12;;;;;;;1.12;1.10;;;4.20;99.90;;;;;;4443028;32;20093;-65
2022/01/13 05:15:39;;;;;;;0.82;0.82;;;4.20;99.90;;;;;;4441746;32;20073;-64
2022/01/13 05:18:15;;;;;;;1.40;1.08;;;4.20;99.90;;;;;;4440443;32;20553;-63
2022/01/13 05:20:45;;;;;;;5.10;1.45;;;4.20;99.90;;;;;;4415493;32;20645;-64
2022/01/13 05:23:11;;;;;;;2.25;1.10;;;4.20;99.90;;;;;;4431564;32;20097;-63
2022/01/13 05:25:38;;;;;;;4.28;2.87;;;4.10;99.90;;;;;;4439229;32;20072;-63
2022/01/13 05:28:05;;;;;;;2.03;1.30;;;4.20;99.90;;;;;;4438984;32;20105;-64
2022/01/13 05:30:32;;;;;;;2.37;1.25;;;4.20;99.90;;;;;;4441501;32;20525;-63
2022/01/13 05:32:58;;;;;;;0.90;0.88;;;4.20;99.90;;;;;;4439886;32;20119;-64
2022/01/13 05:35:25;;;;;;;1.62;1.52;;;4.20;99.90;;;;;;4440671;32;20096;-64
2022/01/13 05:37:51;;;;;;;1.27;1.12;;;4.20;99.90;;;;;;4424029;32;20127;-64
2022/01/13 05:40:16;;;;;;;2.65;1.95;;;4.20;99.90;;;;;;4439178;32;20065;-64
2022/01/13 05:42:42;;;;;;;1.48;1.25;;;4.20;99.90;;;;;;4439984;32;20493;-64
2022/01/13 05:45:15;;;;;;;0.40;0.40;;;4.20;99.90;;;;;;4424524;32;20116;-64
2022/01/13 05:47:43;;;;;;;2.22;1.23;;;4.20;99.90;;;;;;4439224;32;20382;-64
2022/01/13 05:50:11;;;;;;;1.23;1.12;;;4.10;99.90;;;;;;4439610;32;20525;-64
2022/01/13 05:52:36;;;;;;;16.90;1.98;;;4.20;99.90;;;;;;4440378;32;20073;-63
2022/01/13 05:55:03;;;;;;;8.68;2.50;;;4.10;99.90;;;;;;4439965;32;20090;-64
2022/01/13 05:57:29;;;;;;;4.40;1.65;;;4.00;99.90;;;;;;4437758;32;20425;-64
2022/01/13 05:59:55;;;;;;;7.40;1.85;;;4.00;99.90;;;;;;4438832;32;20058;-64
2022/01/13 06:02:20;;;;;;;0.98;0.82;;;4.00;99.90;;;;;;4435307;32;20069;-66
2022/01/13 06:04:46;;;;;;;2.20;1.73;;;4.10;99.90;;;;;;4439558;32;20521;-64
2022/01/13 06:07:11;;;;;;;1.50;1.17;;;4.00;99.90;;;;;;4441924;32;20134;-64
2022/01/13 06:09:37;;;;;;;1.02;1.02;;;4.10;99.90;;;;;;4443390;32;20532;-64
2022/01/13 06:12:03;;;;;;;3.90;1.55;;;4.00;99.90;;;;;;4441554;32;20128;-64
2022/01/13 06:14:29;;;;;;;2.00;1.30;;;4.10;99.90;;;;;;4440577;32;20151;-63
2022/01/13 06:16:55;;;;;;;5.22;1.73;;;4.10;99.90;;;;;;4432128;32;20082;-62
2022/01/13 06:19:21;;;;;;;2.12;0.90;;;4.10;99.90;;;;;;4419543;32;20143;-64
2022/01/13 06:21:47;;;;;;;1.65;1.55;;;4.10;99.90;;;;;;4443058;32;20156;-64
2022/01/13 06:24:12;;;;;;;5.22;2.37;;;4.10;99.90;;;;;;4439017;32;20068;-64
2022/01/13 06:26:38;;;;;;;1.15;1.10;;;4.10;99.90;;;;;;4410994;32;20635;-65
2022/01/13 06:29:04;;;;;;;2.00;1.60;;;4.00;99.90;;;;;;4432108;32;20553;-63
2022/01/13 06:31:30;;;;;;;4.03;1.77;;;4.10;99.90;;;;;;4400588;32;20836;-65
2022/01/13 06:33:57;;;;;;;3.42;2.20;;;4.10;99.90;;;;;;4435837;32;20096;-64
2022/01/13 06:36:23;;;;;;;4.10;2.05;;;4.10;99.90;;;;;;4431419;32;20093;-64
2022/01/13 06:38:50;;;;;;;2.08;1.83;;;4.10;99.90;;;;;;4434309;32;20502;-64
2022/01/13 06:41:20;;;;;;;1.85;1.75;;;4.10;99.90;;;;;;4438252;32;20125;-64
2022/01/13 06:43:47;;;;;;;4.85;2.92;;;4.20;99.90;;;;;;4422073;32;20603;-63
2022/01/13 06:46:20;;;;;;;2.92;1.90;;;4.20;99.90;;;;;;4427570;32;21588;-65
2022/01/13 06:48:46;;;;;;;3.50;1.87;;;4.20;99.90;;;;;;4428987;32;20615;-65
2022/01/13 06:51:12;;;;;;;2.05;1.48;;;4.20;99.90;;;;;;4431230;32;20144;-63
2022/01/13 06:53:37;;;;;;;4.95;2.80;;;4.20;99.90;;;;;;4430159;32;20089;-64
2022/01/13 06:56:04;;;;;;;1.73;1.48;;;4.20;99.90;;;;;;4427860;32;20089;-63
2022/01/13 06:58:30;;;;;;;1.95;1.42;;;4.20;99.90;;;;;;4420463;32;20089;-65
2022/01/13 07:00:55;;;;;;;3.37;2.08;;;4.10;99.90;;;;;;4419919;32;20860;-65
2022/01/13 07:03:22;;;;;;;6.05;1.77;;;4.10;99.90;;;;;;4399904;32;20076;-64
2022/01/13 07:05:48;;;;;;;0.88;0.82;;;4.10;99.90;;;;;;4415402;32;20662;-65
2022/01/13 07:08:14;;;;;;;5.25;1.42;;;4.20;99.90;;;;;;4405490;32;20162;-64
2022/01/13 07:10:40;;;;;;;3.28;1.70;;;4.20;99.90;;;;;;4415120;32;20666;-66
2022/01/13 07:13:05;;;;;;;1.37;1.27;;;4.20;99.90;;;;;;4420673;32;20109;-64
2022/01/13 07:15:32;;;;;;;2.85;2.25;;;4.20;99.90;;;;;;4421185;32;20109;-65
2022/01/13 07:17:58;;;;;;;5.47;1.70;;;4.10;99.90;;;;;;4427566;32;20097;-64
2022/01/13 07:20:26;;;;;;;4.62;1.85;;;4.10;99.90;;;;;;4415144;32;20211;-64
2022/01/13 07:22:51;;;;;;;0.90;0.90;;;4.10;99.90;;;;;;4413865;32;20123;-64
2022/01/13 07:25:17;;;;;;;2.62;1.25;;;4.10;99.90;;;;;;4419010;32;20098;-64
2022/01/13 07:27:43;;;;;;;1.58;0.85;;;4.00;99.90;;;;;;4422551;32;20359;-64
2022/01/13 07:30:10;;;;;;;2.03;1.42;;;4.10;99.90;;;;;;4417930;32;20093;-63
2022/01/13 07:32:36;;;;;;;5.72;1.35;;;4.10;99.90;;;;;;4417422;32;20084;-64
2022/01/13 07:35:02;;;;;;;6.30;1.65;;;4.10;99.90;;;;;;4419877;32;20105;-63
2022/01/13 07:37:28;;;;;;;1.98;1.75;;;4.10;99.90;;;;;;4409124;32;20269;-63
2022/01/13 07:39:53;;;;;;;3.33;2.12;;;4.10;99.90;;;;;;4424701;32;20127;-63
2022/01/13 07:42:19;;;;;;;2.60;1.27;;;4.20;99.90;;;;;;4416989;32;20099;-64
2022/01/13 07:44:45;;;;;;;1.08;1.05;;;4.20;99.90;;;;;;4421913;32;20101;-64
2022/01/13 07:47:10;;;;;;;0.75;0.75;;;4.10;99.90;;;;;;4423768;32;20652;-64
2022/01/13 07:49:37;;;;;;;3.35;1.77;;;4.10;99.90;;;;;;4416325;32;21587;-66
2022/01/13 07:52:04;;;;;;;0.80;0.80;;;4.10;99.90;;;;;;4421985;32;20151;-64
2022/01/13 07:54:31;;;;;;;1.45;1.08;;;4.20;99.90;;;;;;4423011;32;20088;-64
2022/01/13 07:56:58;;;;;;;6.78;1.90;;;4.10;99.90;;;;;;4415122;32;20615;-64
2022/01/13 07:59:31;;;;;;;2.30;1.35;;;4.10;99.90;;;;;;4417631;32;20077;-64
2022/01/13 08:01:59;;;;;;;17.87;1.73;;;4.20;99.90;;;;;;4419309;32;20077;-64
2022/01/13 08:04:25;;;;;;;3.20;1.73;;;4.10;99.90;;;;;;4399728;32;20080;-64
2022/01/13 08:06:51;;;;;;;2.55;1.55;;;4.10;99.90;;;;;;4416199;32;20092;-63
2022/01/13 08:09:17;;;;;;;7.40;1.35;;;4.10;99.90;;;;;;4414832;32;20608;-64
2022/01/13 08:11:44;;;;;;;0.90;0.90;;;4.10;99.90;;;;;;4407022;32;20085;-66
2022/01/13 08:14:09;;;;;;;4.18;2.60;;;4.10;99.90;;;;;;4417268;32;20097;-63
2022/01/13 08:16:35;;;;;;;11.50;1.70;;;4.10;99.90;;;;;;4415435;32;20124;-64
2022/01/13 08:20:01;;;;;;;0.62;0.62;;;4.10;99.90;;;;;;4418478;32;20081;-63
2022/01/13 08:21:47;;;;;;;5.55;2.80;;;4.10;99.90;;;;;;4409344;32;20647;-63
2022/01/13 08:24:12;;;;;;;1.90;1.23;;;4.10;99.90;;;;;;4412264;32;20081;-63
2022/01/13 08:26:38;;;;;;;3.58;1.65;;;4.10;99.90;;;;;;4412864;32;20089;-63
2022/01/13 08:29:04;;;;;;;15.88;1.30;;;4.20;99.90;;;;;;4407381;32;20089;-63
2022/01/13 08:31:30;;;;;;;19.37;3.22;;;4.10;99.90;;;;;;4398532;32;20802;-63
2022/01/13 08:33:55;;;;;;;0.77;0.77;;;4.20;99.90;;;;;;4421710;32;20085;-64
2022/01/13 08:36:21;;;;;;;2.75;1.23;;;4.20;99.90;;;;;;4426365;32;20096;-64
2022/01/13 08:38:49;;;;;;;12.63;2.42;;;4.30;99.90;;;;;;4424495;32;20068;-64
2022/01/13 08:41:14;;;;;;;0.60;0.60;;;4.30;99.90;;;;;;4428410;32;20076;-64
2022/01/13 08:43:40;;;;;;;19.48;2.80;;;4.20;99.90;;;;;;4431608;32;20153;-65
2022/01/13 08:46:05;;;;;;;24.33;1.95;;;4.20;99.90;;;;;;4426769;32;20097;-65
2022/01/13 08:48:33;;;;;;;5.18;2.72;;;4.20;99.90;;;;;;4408769;32;20097;-63
2022/01/13 08:50:59;;;;;;;5.32;1.45;;;4.30;99.90;;;;;;4402694;32;20536;-63
2022/01/13 08:53:24;;;;;;;2.72;1.50;;;4.20;99.90;;;;;;4413123;32;20241;-63
2022/01/13 08:55:51;;;;;;;2.15;1.52;;;4.30;99.90;;;;;;4423696;32;20163;-64
2022/01/13 08:58:18;;;;;;;6.53;2.70;;;4.30;99.90;;;;;;4410942;32;20559;-64
2022/01/13 09:00:44;;;;;;;3.55;1.45;;;4.30;99.90;;;;;;4427420;32;20208;-63
2022/01/13 09:03:11;;;;;;;0.73;0.68;;;4.30;99.90;;;;;;4412061;32;20565;-63
2022/01/13 09:05:38;;;;;;;1.00;1.00;;;4.20;99.90;;;;;;4426375;32;20123;-65
2022/01/13 09:08:06;;;;;;;1.92;1.30;;;4.20;99.90;;;;;;4423578;32;20659;-65
2022/01/13 09:10:32;;;;;;;10.00;2.22;;;4.20;99.90;;;;;;4424904;32;20101;-64
2022/01/13 09:12:58;;;;;;;1.25;1.15;;;4.30;99.90;;;;;;4429470;32;20136;-65
2022/01/13 09:15:44;;;;;;;1.08;1.02;;;4.30;99.90;;;;;;4424030;32;20104;-65
2022/01/13 09:18:14;;;;;;;1.50;1.40;;;4.30;99.90;;;;;;4405024;32;20090;-64
2022/01/13 09:20:40;;;;;;;1.67;1.58;;;4.30;99.90;;;;;;4429368;32;20081;-64
2022/01/13 09:23:06;;;;;;;1.15;0.73;;;4.30;99.90;;;;;;4425401;32;20101;-65
2022/01/13 09:25:33;;;;;;;2.50;1.73;;;4.30;99.90;;;;;;4415980;32;20605;-64
2022/01/13 09:27:59;;;;;;;2.95;1.00;;;4.30;99.90;;;;;;4412332;32;20124;-64
2022/01/13 09:30:25;;;;;;;2.10;1.15;;;4.30;99.90;;;;;;4426717;32;20512;-64
2022/01/13 09:32:51;;;;;;;4.18;2.15;;;4.30;99.90;;;;;;4427386;32;20167;-65
2022/01/13 09:35:17;;;;;;;3.92;1.52;;;4.30;99.90;;;;;;4428618;32;20089;-64
2022/01/13 09:37:42;;;;;;;3.75;2.35;;;4.30;99.90;;;;;;4431396;32;20073;-64
2022/01/13 09:40:09;;;;;;;14.30;2.12;;;4.30;99.90;;;;;;4415990;32;20092;-64
2022/01/13 09:42:38;;;;;;;3.70;1.17;;;4.40;99.90;;;;;;4418470;32;20077;-64
2022/01/13 09:45:06;;;;;;;0.95;0.95;;;4.40;99.90;;;;;;4412584;32;20798;-64
2022/01/13 09:47:32;;;;;;;5.78;1.58;;;4.50;99.90;;;;;;4418115;32;20093;-65
2022/01/13 09:50:01;;;;;;;1.23;1.12;;;4.40;99.90;;;;;;4432384;32;20086;-64
2022/01/13 09:52:27;;;;;;;18.17;2.87;;;4.40;99.90;;;;;;4417603;32;20069;-64
2022/01/13 09:54:52;;;;;;;11.80;1.30;;;4.40;99.90;;;;;;4434019;32;20093;-64
2022/01/13 09:57:18;;;;;;;1.55;1.45;;;4.50;99.90;;;;;;4427940;32;20085;-64
2022/01/13 09:59:43;;;;;;;2.05;1.48;;;4.40;99.90;;;;;;4427768;32;20499;-63
2022/01/13 10:02:09;;;;;;;1.17;1.10;;;4.40;99.90;;;;;;4431961;32;20084;-64
2022/01/13 10:04:53;;;;;;;8.50;2.85;;;4.40;99.90;;;;;;4429343;32;20089;-63
2022/01/13 10:07:41;;;;;;;2.97;1.80;;;4.40;99.90;;;;;;4418825;32;20068;-63
2022/01/13 10:10:12;;;;;;;3.17;1.52;;;4.40;99.90;;;;;;4412165;32;20100;-63
2022/01/13 10:12:39;;;;;;;1.75;1.15;;;4.40;99.90;;;;;;4433297;32;20191;-64
2022/01/13 10:17:48;;;;;;;3.30;2.40;;;4.40;99.90;;;;;;4430977;32;20084;-64
2022/01/13 10:20:17;;;;;;;5.18;1.83;;;4.40;99.90;;;;;;4422241;32;20535;-65
2022/01/13 10:22:44;;;;;;;1.15;1.08;;;4.50;99.90;;;;;;4422133;32;20120;-66
2022/01/13 10:25:29;;;;;;;3.40;2.28;;;4.40;99.90;;;;;;4411661;32;20135;-64
2022/01/13 10:27:56;;;;;;;9.23;2.25;;;4.40;99.90;;;;;;4426499;32;20309;-64
2022/01/13 10:30:25;;;;;;;2.17;1.70;;;4.40;99.90;;;;;;4412555;32;20057;-64
2022/01/13 10:32:51;;;;;;;7.25;1.30;;;4.40;99.90;;;;;;4408989;32;20127;-63
2022/01/13 10:35:20;;;;;;;2.67;1.95;;;4.40;99.90;;;;;;4427694;32;20062;-64
2022/01/13 10:37:54;;;;;;;2.00;1.48;;;4.40;99.90;;;;;;4423677;32;20076;-64
2022/01/13 10:40:26;;;;;;;1.42;1.33;;;4.40;99.90;;;;;;4427003;32;20085;-64
2022/01/13 10:45:26;;;;;;;3.72;1.58;;;4.50;99.90;;;;;;4426099;32;20073;-63
2022/01/13 10:47:58;;;;;;;1.87;1.73;;;4.60;99.90;;;;;;4428818;32;20073;-64
2022/01/13 10:50:35;;;;;;;4.37;1.40;;;4.60;99.90;;;;;;4429424;32;20120;-64
2022/01/13 10:53:05;;;;;;;1.45;1.23;;;4.50;99.90;;;;;;4424843;32;20088;-64
2022/01/13 10:55:35;;;;;;;6.03;2.40;;;4.50;99.90;;;;;;4414593;32;21048;-65
2022/01/13 10:58:01;;;;;;;3.20;0.95;;;4.60;99.90;;;;;;4429386;32;20093;-64
2022/01/13 11:00:30;;;;;;;0.82;0.82;;;4.60;99.90;;;;;;4423096;32;20497;-64
2022/01/13 11:03:05;;;;;;;2.12;1.25;;;4.50;99.90;;;;;;4431306;32;20061;-63
2022/01/13 11:05:32;;;;;;;0.98;0.93;;;4.50;99.90;;;;;;4427258;32;20836;-64
2022/01/13 11:08:01;;;;;;;2.67;1.52;;;4.50;99.90;;;;;;4427847;32;20092;-64
2022/01/13 11:10:27;;;;;;;1.60;1.08;;;4.50;99.90;;;;;;4427709;32;20207;-64
2022/01/13 11:12:58;;;;;;;2.40;1.35;;;4.40;99.90;;;;;;4427069;32;20207;-64
2022/01/13 11:15:24;;;;;;;;;;;4.40;99.90;;;;;;4425303;32;20150;-64
2022/01/13 11:17:53;;;;;;;1.10;1.02;;;4.50;99.90;;;;;;4429394;32;19952;-64
2022/01/13 11:20:19;;;;;;;5.00;2.00;;;4.50;99.90;;;;;;4426421;32;20077;-64
2022/01/13 11:22:47;;;;;;;1.17;0.98;;;4.50;99.90;;;;;;4427599;32;20204;-64
2022/01/13 11:25:18;;;;;;;1.17;0.82;;;4.60;99.90;;;;;;4429223;32;20109;-65
2022/01/13 11:27:44;;;;;;;2.65;1.12;;;4.60;99.90;;;;;;4430517;32;20105;-63
2022/01/13 11:30:14;;;;;;;1.08;0.95;;;4.60;99.90;;;;;;4426417;32;20638;-63
2022/01/13 11:32:41;;;;;;;3.35;1.12;;;4.60;99.90;;;;;;4429859;32;20105;-63
2022/01/13 11:35:11;;;;;;;12.93;1.27;;;4.70;99.90;;;;;;4426962;32;20584;-64
2022/01/13 11:37:39;;;;;;;2.05;1.10;;;4.80;99.90;;;;;;4429332;32;20106;-63
2022/01/13 11:40:07;;;;;;;0.98;0.90;;;4.80;99.90;;;;;;4431689;32;20086;-63
2022/01/13 11:42:45;;;;;;;1.98;1.67;;;4.80;99.90;;;;;;4429330;32;20219;-63
2022/01/13 11:45:16;;;;;;;0.52;0.52;;;4.80;99.90;;;;;;4431799;32;20097;-66
2022/01/13 11:47:42;;;;;;;2.15;0.70;;;4.80;99.90;;;;;;4426130;32;20065;-63
2022/01/13 11:50:18;;;;;;;6.43;1.75;;;4.70;99.90;;;;;;4414183;32;20162;-64
2022/01/13 11:52:51;;;;;;;0.62;0.62;;;4.80;99.90;;;;;;4414695;32;20104;-64
2022/01/13 11:55:34;;;;;;;1.33;1.17;;;4.80;99.90;;;;;;4414404;32;20151;-64
2022/01/13 11:58:17;;;;;;;0.60;0.60;;;4.80;99.90;;;;;;4414862;32;20947;-64
2022/01/13 12:00:46;;;;;;;1.05;1.05;;;4.80;99.90;;;;;;4413141;32;20101;-63
2022/01/13 12:03:32;;;;;;;5.55;1.73;;;4.90;99.90;;;;;;4425187;32;20117;-62
2022/01/13 12:06:00;;;;;;;1.62;0.98;;;4.80;99.90;;;;;;4418548;32;20064;-63
2022/01/13 12:08:45;;;;;;;3.03;1.60;;;4.90;99.90;;;;;;4428420;32;20808;-62
2022/01/13 12:11:50;;;;;;;0.82;0.82;;;5.00;99.90;;;;;;4429527;32;20093;-63
2022/01/13 12:14:28;;;;;;;2.03;1.10;;;5.00;99.90;;;;;;4416999;32;20106;-64
2022/01/13 12:16:59;;;;;;;1.52;0.95;;;5.00;99.90;;;;;;4413927;32;20096;-64
2022/01/13 12:19:28;;;;;;;1.37;1.17;;;5.00;99.90;;;;;;4421897;32;20089;-64
2022/01/13 12:22:02;;;;;;;4.60;3.00;;;5.00;99.90;;;;;;4427255;32;20127;-64
2022/01/13 12:24:50;;;;;;;0.50;0.50;;;5.00;99.90;;;;;;4426072;32;20664;-64
2022/01/13 12:27:18;;;;;;;0.73;0.73;;;5.10;99.90;;;;;;4420035;32;20064;-63
2022/01/13 12:29:47;;;;;;;9.25;1.05;;;5.10;99.90;;;;;;4430393;32;20128;-63
2022/01/13 12:32:14;;;;;;;1.27;0.98;;;5.10;99.90;;;;;;4431508;32;20084;-64
2022/01/13 12:34:43;;;;;;;0.90;0.82;;;5.00;99.90;;;;;;4419567;32;20097;-62
2022/01/13 12:37:12;;;;;;;0.82;0.82;;;5.00;99.90;;;;;;4430313;32;20087;-63
2022/01/13 12:39:43;;;;;;;0.85;0.73;;;5.10;99.90;;;;;;4425608;32;20625;-63
2022/01/13 12:42:32;;;;;;;6.65;1.00;;;5.10;99.90;;;;;;4419206;32;20101;-63
2022/01/13 12:45:58;;;;;;;3.50;2.50;;;5.10;99.90;;;;;;4414648;32;20231;-63
2022/01/13 12:47:44;;;;;;;0.60;0.60;;;5.10;99.90;;;;;;4418113;32;20424;-64
2022/01/13 12:50:15;;;;;;;3.15;1.42;;;5.20;99.90;;;;;;4432293;32;20097;-64
2022/01/13 12:52:41;;;;;;;3.12;1.05;;;5.20;99.90;;;;;;4422261;32;20089;-63
2022/01/13 12:55:08;;;;;;;0.95;0.88;;;5.20;99.90;;;;;;4433071;32;20534;-64
2022/01/13 12:57:33;;;;;;;1.80;1.23;;;5.20;99.90;;;;;;4428013;32;20076;-64
2022/01/13 13:01:40;;;;;;;4.45;1.45;;;5.20;99.90;;;;;;4408398;32;20420;-64
2022/01/13 13:03:24;;;;;;;1.92;1.48;;;5.20;99.90;;;;;;4397480;32;20529;-64
2022/01/13 13:05:51;;;;;;;0.77;0.77;;;5.20;99.90;;;;;;4414107;32;20109;-65
2022/01/13 13:08:20;;;;;;;2.83;1.23;;;5.20;99.90;;;;;;4427103;32;20093;-64
2022/01/13 13:10:50;;;;;;;0.80;0.80;;;5.20;99.90;;;;;;4428094;32;20097;-63
2022/01/13 13:13:17;;;;;;;0.45;0.45;;;5.30;99.90;;;;;;4433349;32;20125;-63
2022/01/13 13:16:02;;;;;;;8.30;2.05;;;5.20;99.90;;;;;;4430957;32;20935;-63
2022/01/13 13:18:29;;;;;;;0.70;0.70;;;5.20;99.90;;;;;;4434993;32;20158;-63
2022/01/13 13:20:56;;;;;;;2.25;1.52;;;5.30;99.90;;;;;;4439210;32;20097;-63